Warning: Javascript must be enabled to use all the features on this page!


Page Loading - Please Wait...

Click to hideNews Bulletins
Click to hide state-specific text

Explore Real-time Water Data Using New Products from USGS TXWSC

View over 750 USGS real-time stream, lake, reservoir, precipitation, and groundwater stations in context with current weather and hazard conditions on both desktop and mobile devices.

Click to go to the Texas Water Dashboard Click to go to the WATER On-the-go app

Follow @USGS_TexasFlood and @USGS_TexasRain on Twitter to get current water level and precipitation data during flooding or severe rainfall events.


USGS 08195000 Frio Rv at Concan, TX

PROVISIONAL DATA SUBJECT TO REVISION

Click to hidestation-specific text
Funding for this site is provided by the cooperators / programs below:
Click to go to the Edwards Aquifer Authority web page

Edwards Aquifer Authority

Click to go to the Cooperative Matching Funds web page

Cooperative Matching Funds

 

Rainfall Disclaimer


retransmission, forecasts and summary of this location by the National Weather Service
Retransmission, forecasts and summary by the National Weather Service
This station managed by the San Antonio Field Unit.

Available Parameters Available Period
All 6 Available Parameters for this site
  
00010 Temperature, water 2013-07-25  2018-10-21
00045 Precipitation 2018-06-23  2018-10-21
00060 Discharge 1991-10-01  2018-10-21
00065 Gage height 2007-10-01  2018-10-21
00095 Specific cond at 25C 2013-07-02  2018-10-21
99133 NO3+NO2,water,insitu 2015-09-24  2018-10-21

Graph
Graph w/ stats
Graph w/o stats
Graph w/ (up to 3) parms
Table
Tab-separated
Days  (2)
 

  -- or --
Begin date
 

End date
 

Summary of all available data for this site
Instantaneous-data availability statement






Date / Time




Gage
height,
feet,




Dis-
charge,
ft3/s,



Precip-
itation
total,
inches,
Specif-
ic
conduc-
tance,
wat unf
uS/cm @
25 degC,



Temper-
ature,
water,
deg C,

Nitrate
+
nitrite
water,
in situ
mg/L as,
10/19/2018 00:00 CDT5.80P  1,670P  0.00P  497P  18.4P  1.49P  
10/19/2018 00:15 CDT5.79P  1,660P  0.00P  497P  18.4P     
10/19/2018 00:30 CDT5.81P  1,690P  0.00P  498P  18.4P     
10/19/2018 00:45 CDT5.80P  1,670P  0.00P  498P  18.4P     
10/19/2018 01:00 CDT5.80P  1,670P  0.00P  498P  18.4P  1.49P  
10/19/2018 01:15 CDT5.80P  1,670P  0.00P  498P  18.4P     
10/19/2018 01:30 CDT5.79P  1,660P  0.00P  498P  18.4P     
10/19/2018 01:45 CDT5.80P  1,670P  0.00P  498P  18.4P     
10/19/2018 02:00 CDT5.80P  1,670P  0.00P  499P  18.4P  1.49P  
10/19/2018 02:15 CDT5.79P  1,660P  0.00P  499P  18.4P     
10/19/2018 02:30 CDT5.80P  1,670P  0.01P  499P  18.4P     
10/19/2018 02:45 CDT5.79P  1,660P  0.00P  499P  18.4P     
10/19/2018 03:00 CDT5.78P  1,650P  0.00P  499P  18.4P  1.50P  
10/19/2018 03:15 CDT5.80P  1,670P  0.00P  500P  18.4P     
10/19/2018 03:30 CDT5.80P  1,670P  0.00P  500P  18.4P     
10/19/2018 03:45 CDT5.79P  1,660P  0.00P  500P  18.4P     
10/19/2018 04:00 CDT5.78P  1,650P  0.00P  500P  18.4P  1.50P  
10/19/2018 04:15 CDT5.79P  1,660P  0.00P  500P  18.4P     
10/19/2018 04:30 CDT5.80P  1,670P  0.00P  500P  18.4P     
10/19/2018 04:45 CDT5.78P  1,650P  0.00P  501P  18.4P     
10/19/2018 05:00 CDT5.79P  1,660P  0.00P  501P  18.4P  1.51P  
10/19/2018 05:15 CDT5.79P  1,660P  0.00P  501P  18.4P     
10/19/2018 05:30 CDT5.77P  1,640P  0.00P  501P  18.4P     
10/19/2018 05:45 CDT5.78P  1,650P  0.00P  501P  18.4P     
10/19/2018 06:00 CDT5.76P  1,620P  0.00P  501P  18.5P  1.51P  
10/19/2018 06:15 CDT5.78P  1,650P  0.00P  502P  18.5P     
10/19/2018 06:30 CDT5.77P  1,640P  0.00P  502P  18.5P     
10/19/2018 06:45 CDT5.78P  1,650P  0.00P  502P  18.5P     
10/19/2018 07:00 CDT5.75P  1,610P  0.00P  502P  18.5P  1.50P  
10/19/2018 07:15 CDT5.77P  1,640P  0.00P  502P  18.5P     
10/19/2018 07:30 CDT5.76P  1,620P  0.00P  502P  18.5P     
10/19/2018 07:45 CDT5.77P  1,640P  0.00P  502P  18.5P     
10/19/2018 08:00 CDT5.78P  1,650P  0.00P  503P  18.5P  1.49P  
10/19/2018 08:15 CDT5.77P  1,640P  0.00P  503P  18.5P     
10/19/2018 08:30 CDT5.75P  1,610P  0.00P  503P  18.5P     
10/19/2018 08:45 CDT5.76P  1,620P  0.00P  503P  18.5P     
10/19/2018 09:00 CDT5.75P  1,610P  0.00P  503P  18.5P  1.49P  
10/19/2018 09:15 CDT5.75P  1,610P  0.00P  503P  18.5P     
10/19/2018 09:30 CDT5.76P  1,620P  0.00P  504P  18.5P     
10/19/2018 09:45 CDT5.74P  1,600P  0.00P  504P  18.6P     
10/19/2018 10:00 CDT5.76P  1,620P  0.00P  504P  18.6P  1.50P  
10/19/2018 10:15 CDT5.74P  1,600P  0.00P  504P  18.6P     
10/19/2018 10:30 CDT5.74P  1,600P  0.00P  504P  18.6P     
10/19/2018 10:45 CDT5.74P  1,600P  0.00P  504P  18.6P     
10/19/2018 11:00 CDT5.76P  1,620P  0.00P  504P  18.6P  1.50P  
10/19/2018 11:15 CDT5.75P  1,610P  0.00P  505P  18.7P     
10/19/2018 11:30 CDT5.72P  1,580P  0.00P  504P  18.7P     
10/19/2018 11:45 CDT5.75P  1,610P  0.01P  505P  18.7P     
10/19/2018 12:00 CDT5.73P  1,590P  0.00P  505P  18.7P  1.51P  
10/19/2018 12:15 CDT5.72P  1,580P  0.00P  505P  18.8P     
10/19/2018 12:30 CDT5.74P  1,600P  0.00P  506P  18.8P     
10/19/2018 12:45 CDT5.72P  1,580P  0.00P  505P  18.8P     
10/19/2018 13:00 CDT5.72P  1,580P  0.00P  505P  18.9P  1.50P  
10/19/2018 13:15 CDT5.72P  1,580P  0.00P  506P  18.9P     
10/19/2018 13:30 CDT5.71P  1,560P  0.00P  506P  18.9P     
10/19/2018 13:45 CDT5.71P  1,560P  0.00P  507P  19.0P     
10/19/2018 14:00 CDT5.73P  1,590P  0.00P  507P  19.0P  1.49P  
10/19/2018 14:15 CDT5.71P  1,560P  0.00P  506P  19.1P     
10/19/2018 14:30 CDT5.72P  1,580P  0.00P  507P  19.2P     
10/19/2018 14:45 CDT5.72P  1,580P  0.00P  506P  19.2P     
10/19/2018 15:00 CDT5.71P  1,560P  0.00P  507P  19.2P  1.50P  
10/19/2018 15:15 CDT5.71P  1,560P  0.00P  507P  19.3P     
10/19/2018 15:30 CDT5.72P  1,580P  0.00P  507P  19.4P     
10/19/2018 15:45 CDT5.71P  1,560P  0.00P  507P  19.4P     
10/19/2018 16:00 CDT5.69P  1,540P  0.00P  507P  19.4P  1.50P  
10/19/2018 16:15 CDT5.70P  1,550P  0.00P  507P  19.5P     
10/19/2018 16:30 CDT5.71P  1,560P  0.00P  508P  19.5P     
10/19/2018 16:45 CDT5.69P  1,540P  0.00P  508P  19.5P     
10/19/2018 17:00 CDT5.71P  1,560P  0.00P  507P  19.6P  1.49P  
10/19/2018 17:15 CDT5.69P  1,540P  0.00P  508P  19.6P     
10/19/2018 17:30 CDT5.69P  1,540P  0.00P  507P  19.6P     
10/19/2018 17:45 CDT5.69P  1,540P  0.00P  508P  19.7P     
10/19/2018 18:00 CDT5.69P  1,540P  0.00P  508P  19.7P  1.50P  
10/19/2018 18:15 CDT5.69P  1,540P  0.00P  508P  19.7P     
10/19/2018 18:30 CDT5.69P  1,540P  0.00P  508P  19.8P     
10/19/2018 18:45 CDT5.69P  1,540P  0.00P  508P  19.8P     
10/19/2018 19:00 CDT5.68P  1,530P  0.00P  508P  19.8P  1.50P  
10/19/2018 19:15 CDT5.66P  1,500P  0.00P  508P  19.8P     
10/19/2018 19:30 CDT5.68P  1,530P  0.00P  508P  19.8P     
10/19/2018 19:45 CDT5.68P  1,530P  0.00P  508P  19.8P     
10/19/2018 20:00 CDT5.68P  1,530P  0.00P  508P  19.8P  1.52P  
10/19/2018 20:15 CDT5.67P  1,510P  0.00P  508P  19.8P     
10/19/2018 20:30 CDT5.65P  1,490P  0.00P  508P  19.9P     
10/19/2018 20:45 CDT5.68P  1,530P  0.00P  508P  19.9P     
10/19/2018 21:00 CDT5.66P  1,500P  0.00P  508P  19.9P  1.52P  
10/19/2018 21:15 CDT5.67P  1,510P  0.00P  509P  19.9P     
10/19/2018 21:30 CDT5.66P  1,500P  0.00P  509P  19.9P     
10/19/2018 21:45 CDT5.67P  1,510P  0.00P  509P  19.9P     
10/19/2018 22:00 CDT5.66P  1,500P  0.00P  509P  19.9P  1.51P  
10/19/2018 22:15 CDT5.66P  1,500P  0.00P  509P  19.9P     
10/19/2018 22:30 CDT5.65P  1,490P  0.00P  510P  19.9P     
10/19/2018 22:45 CDT5.65P  1,490P  0.00P  509P  19.9P     
10/19/2018 23:00 CDT5.65P  1,490P  0.00P  509P  19.9P  1.52P  
10/19/2018 23:15 CDT5.66P  1,500P  0.00P  510P  19.9P     
10/19/2018 23:30 CDT5.65P  1,490P  0.00P  510P  19.8P     
10/19/2018 23:45 CDT5.64P  1,480P  0.00P  510P  19.8P     
10/20/2018 00:00 CDT5.64P  1,480P  0.00P  510P  19.8P  1.51P  
10/20/2018 00:15 CDT5.64P  1,480P  0.00P  510P  19.8P     
10/20/2018 00:30 CDT5.63P  1,470P  0.00P  511P  19.8P     
10/20/2018 00:45 CDT5.64P  1,480P  0.00P  511P  19.8P     
10/20/2018 01:00 CDT5.64P  1,480P  0.00P  511P  19.8P  1.52P  
10/20/2018 01:15 CDT5.63P  1,470P  0.00P  511P  19.8P     
10/20/2018 01:30 CDT5.64P  1,480P  0.00P  512P  19.8P     
10/20/2018 01:45 CDT5.62P  1,460P  0.00P  511P  19.8P     
10/20/2018 02:00 CDT5.63P  1,470P  0.00P  511P  19.8P  1.52P  
10/20/2018 02:15 CDT5.62P  1,460P  0.00P  512P  19.8P     
10/20/2018 02:30 CDT5.63P  1,470P  0.00P  512P  19.8P     
10/20/2018 02:45 CDT5.62P  1,460P  0.00P  512P  19.8P     
10/20/2018 03:00 CDT5.61P  1,440P  0.00P  512P  19.8P  1.53P  
10/20/2018 03:15 CDT5.61P  1,440P  0.00P  512P  19.8P     
10/20/2018 03:30 CDT5.61P  1,440P  0.00P  513P  19.8P     
10/20/2018 03:45 CDT5.60P  1,430P  0.00P  513P  19.8P     
10/20/2018 04:00 CDT5.60P  1,430P  0.00P  513P  19.7P  1.52P  
10/20/2018 04:15 CDT5.61P  1,440P  0.00P  513P  19.7P     
10/20/2018 04:30 CDT5.62P  1,460P  0.00P  513P  19.7P     
10/20/2018 04:45 CDT5.59P  1,420P  0.00P  513P  19.7P     
10/20/2018 05:00 CDT5.60P  1,430P  0.00P  513P  19.7P  1.51P  
10/20/2018 05:15 CDT5.60P  1,430P  0.00P  513P  19.7P     
10/20/2018 05:30 CDT5.60P  1,430P  0.00P  514P  19.7P     
10/20/2018 05:45 CDT5.61P  1,440P  0.00P  514P  19.7P     
10/20/2018 06:00 CDT5.60P  1,430P  0.00P  514P  19.7P  1.53P  
10/20/2018 06:15 CDT5.60P  1,430P  0.00P  514P  19.7P     
10/20/2018 06:30 CDT5.60P  1,430P  0.00P  514P  19.7P     
10/20/2018 06:45 CDT5.60P  1,430P  0.00P  514P  19.7P     
10/20/2018 07:00 CDT5.60P  1,430P  0.00P  515P  19.7P  1.52P  
10/20/2018 07:15 CDT5.58P  1,410P  0.00P  515P  19.7P     
10/20/2018 07:30 CDT5.60P  1,430P  0.00P  514P  19.7P     
10/20/2018 07:45 CDT5.59P  1,420P  0.00P  514P  19.7P     
10/20/2018 08:00 CDT5.57P  1,400P  0.00P  514P  19.7P  1.51P  
10/20/2018 08:15 CDT5.58P  1,410P  0.00P  515P  19.7P     
10/20/2018 08:30 CDT5.57P  1,400P  0.00P  515P  19.7P     
10/20/2018 08:45 CDT5.58P  1,410P  0.00P  515P  19.7P     
10/20/2018 09:00 CDT5.58P  1,410P  0.00P  515P  19.7P  1.52P  
10/20/2018 09:15 CDT5.58P  1,410P  0.00P  515P  19.7P     
10/20/2018 09:30 CDT5.58P  1,410P  0.00P  515P  19.7P     
10/20/2018 09:45 CDT5.58P  1,410P  0.00P  515P  19.7P     
10/20/2018 10:00 CDT5.57P  1,400P  0.00P  516P  19.7P  1.52P  
10/20/2018 10:15 CDT5.57P  1,400P  0.00P  515P  19.7P     
10/20/2018 10:30 CDT5.57P  1,400P  0.00P  516P  19.7P     
10/20/2018 10:45 CDT5.55P  1,380P  0.00P  516P  19.8P     
10/20/2018 11:00 CDT5.58P  1,410P  0.00P  517P  19.8P  1.50P  
10/20/2018 11:15 CDT5.58P  1,410P  0.00P  517P  19.8P     
10/20/2018 11:30 CDT5.59P  1,420P  0.00P  516P  19.8P     
10/20/2018 11:45 CDT5.56P  1,390P  0.00P  517P  19.9P     
10/20/2018 12:00 CDT5.56P  1,390P  0.00P  516P  19.9P  1.47P  
10/20/2018 12:15 CDT5.56P  1,390P  0.00P  517P  20.0P     
10/20/2018 12:30 CDT5.56P  1,390P  0.00P  517P  20.0P     
10/20/2018 12:45 CDT5.54P  1,360P  0.00P  517P  20.1P     
10/20/2018 13:00 CDT5.55P  1,380P  0.00P  517P  20.2P  1.50P  
10/20/2018 13:15 CDT5.55P  1,380P  0.00P  517P  20.2P     
10/20/2018 13:30 CDT5.54P  1,360P  0.00P  517P  20.3P     
10/20/2018 13:45 CDT5.56P  1,390P  0.00P  517P  20.3P     
10/20/2018 14:00 CDT5.55P  1,380P  0.00P  517P  20.4P  1.50P  
10/20/2018 14:15 CDT5.54P  1,360P  0.00P  517P  20.4P     
10/20/2018 14:30 CDT5.55P  1,380P  0.00P  517P  20.4P     
10/20/2018 14:45 CDT5.54P  1,360P  0.00P  517P  20.5P     
10/20/2018 15:00 CDT5.55P  1,380P  0.00P  517P  20.5P  1.51P  
10/20/2018 15:15 CDT5.53P  1,350P  0.00P  517P  20.5P     
10/20/2018 15:30 CDT5.55P  1,380P  0.00P  517P  20.6P     
10/20/2018 15:45 CDT5.53P  1,350P  0.00P  517P  20.6P     
10/20/2018 16:00 CDT5.54P  1,360P  0.00P  517P  20.6P  1.50P  
10/20/2018 16:15 CDT5.53P  1,350P  0.00P  517P  20.6P     
10/20/2018 16:30 CDT5.53P  1,350P  0.00P  516P  20.6P     
10/20/2018 16:45 CDT5.53P  1,350P  0.00P  516P  20.6P     
10/20/2018 17:00 CDT5.52P  1,340P  0.00P  517P  20.6P  1.50P  
10/20/2018 17:15 CDT5.53P  1,350P  0.00P  516P  20.6P     
10/20/2018 17:30 CDT5.54P  1,360P  0.00P  517P  20.6P     
10/20/2018 17:45 CDT5.53P  1,350P  0.00P  517P  20.6P     
10/20/2018 18:00 CDT5.52P  1,340P  0.00P  517P  20.6P  1.52P  
10/20/2018 18:15 CDT5.53P  1,350P  0.00P  517P  20.6P     
10/20/2018 18:30 CDT5.53P  1,350P  0.00P  517P  20.6P     
10/20/2018 18:45 CDT5.52P  1,340P  0.00P  516P  20.6P     
10/20/2018 19:00 CDT5.51P  1,330P  0.00P  517P  20.6P  1.52P  
10/20/2018 19:15 CDT5.51P  1,330P  0.00P  516P  20.6P     
10/20/2018 19:30 CDT5.51P  1,330P  0.00P  517P  20.6P     
10/20/2018 19:45 CDT5.50P  1,320P  0.00P  517P  20.6P     
10/20/2018 20:00 CDT5.52P  1,340P  0.00P  517P  20.6P  1.53P  
10/20/2018 20:15 CDT5.51P  1,330P  0.00P  517P  20.6P     
10/20/2018 20:30 CDT5.51P  1,330P  0.00P  517P  20.5P     
10/20/2018 20:45 CDT5.50P  1,320P  0.00P  517P  20.5P     
10/20/2018 21:00 CDT5.51P  1,330P  0.00P  517P  20.5P  1.53P  
10/20/2018 21:15 CDT5.51P  1,330P  0.00P  517P  20.5P     
10/20/2018 21:30 CDT5.52P  1,340P  0.00P  518P  20.5P     
10/20/2018 21:45 CDT5.50P  1,320P  0.00P  517P  20.4P     
10/20/2018 22:00 CDT5.50P  1,320P  0.00P  517P  20.4P  1.53P  
10/20/2018 22:15 CDT5.51P  1,330P  0.00P  517P  20.4P     
10/20/2018 22:30 CDT5.50P  1,320P  0.00P  518P  20.4P     
10/20/2018 22:45 CDT5.49P  1,310P  0.00P  518P  20.3P     
10/20/2018 23:00 CDT5.51P  1,330P  0.00P  518P  20.3P  1.52P  
10/20/2018 23:15 CDT5.49P  1,310P  0.00P  518P  20.3P     
10/20/2018 23:30 CDT5.49P  1,310P  0.00P  518P  20.3P     
10/20/2018 23:45 CDT5.49P  1,310P  0.00P  518P  20.2P     
10/21/2018 00:00 CDT5.48P  1,300P  0.00P  518P  20.2P  1.53P  
10/21/2018 00:15 CDT5.49P  1,310P  0.00P  518P  20.2P     
10/21/2018 00:30 CDT5.48P  1,300P  0.00P  518P  20.1P     
10/21/2018 00:45 CDT5.47P  1,290P  0.00P  519P  20.1P     
10/21/2018 01:00 CDT5.47P  1,290P  0.00P  519P  20.1P  1.54P  
10/21/2018 01:15 CDT5.47P  1,290P  0.00P  519P  20.0P     
10/21/2018 01:30 CDT5.48P  1,300P  0.00P  519P  20.0P     
10/21/2018 01:45 CDT5.48P  1,300P  0.00P  519P  20.0P     
10/21/2018 02:00 CDT5.49P  1,310P  0.00P  519P  20.0P  1.54P  
10/21/2018 02:15 CDT5.47P  1,290P  0.00P  519P  19.9P     
10/21/2018 02:30 CDT5.47P  1,290P  0.00P  519P  19.9P     
10/21/2018 02:45 CDT5.47P  1,290P  0.00P  519P  19.9P     
10/21/2018 03:00 CDT5.48P  1,300P  0.00P  520P  19.8P  1.54P  
10/21/2018 03:15 CDT5.48P  1,300P  0.00P  520P  19.8P     
10/21/2018 03:30 CDT5.47P  1,290P  0.00P  519P  19.8P     
10/21/2018 03:45 CDT5.47P  1,290P  0.00P  519P  19.8P     
10/21/2018 04:00 CDT5.47P  1,290P  0.00P  520P  19.7P  1.54P  
10/21/2018 04:15 CDT5.46P  1,280P  0.00P  519P  19.7P     
10/21/2018 04:30 CDT5.46P  1,280P  0.00P  527P  19.7P     
10/21/2018 04:45 CDT5.46P  1,280P  0.00P  520P  19.7P     
10/21/2018 05:00 CDT5.46P  1,280P  0.00P  520P  19.6P  1.53P  
10/21/2018 05:15 CDT5.45P  1,260P  0.00P  520P  19.6P     
10/21/2018 05:30 CDT5.47P  1,290P  0.00P  520P  19.6P     
10/21/2018 05:45 CDT5.45P  1,260P  0.00P  521P  19.6P     
10/21/2018 06:00 CDT5.45P  1,260P  0.00P  520P  19.6P  1.53P  
10/21/2018 06:15 CDT5.46P  1,280P  0.00P  520P  19.5P     
10/21/2018 06:30 CDT5.45P  1,260P  0.00P  521P  19.5P     
10/21/2018 06:45 CDT5.46P  1,280P  0.00P  521P  19.5P     
10/21/2018 07:00 CDT5.44P  1,250P  0.00P  520P  19.5P  1.52P  
10/21/2018 07:15 CDT5.44P  1,250P  0.00P  521P  19.4P     
10/21/2018 07:30 CDT5.46P  1,280P  0.00P  521P  19.4P     
10/21/2018 07:45 CDT5.45P  1,260P  0.00P  521P  19.4P     
10/21/2018 08:00 CDT5.44P  1,250P  0.00P  521P  19.4P  1.52P  
10/21/2018 08:15 CDT5.43P  1,240P  0.00P  521P  19.4P     
10/21/2018 08:30 CDT5.43P  1,240P  0.00P  521P  19.4P     
10/21/2018 08:45 CDT5.44P  1,250P  0.00P  522P  19.3P     
10/21/2018 09:00 CDT5.45P  1,260P  0.00P  521P  19.3P  1.54P  
10/21/2018 09:15 CDT5.44P  1,250P  0.00P  521P  19.3P     
10/21/2018 09:30 CDT5.43P  1,240P  0.00P  521P  19.3P     
10/21/2018 09:45 CDT5.44P  1,250P  0.00P  521P  19.3P     
10/21/2018 10:00 CDT5.44P  1,250P  0.00P  522P  19.3P  1.52P  
10/21/2018 10:15 CDT5.43P  1,240P  0.00P  522P  19.3P     
10/21/2018 10:30 CDT5.44P  1,250P  0.00P  522P  19.3P     
10/21/2018 10:45 CDT5.43P  1,240P  0.00P  522P  19.3P     
10/21/2018 11:00 CDT5.42P  1,230P  0.00P  523P  19.3P  1.51P  
10/21/2018 11:15 CDT5.43P  1,240P  0.00P  522P  19.4P     
10/21/2018 11:30 CDT5.42P  1,230P  0.00P  523P  19.4P     
10/21/2018 11:45 CDT5.42P  1,230P  0.00P  523P  19.4P     
10/21/2018 12:00 CDT5.41P  1,220P  0.00P  523P  19.5P  1.47P  
10/21/2018 12:15 CDT5.44P  1,250P  0.00P  523P  19.5P     
10/21/2018 12:30 CDT5.43P  1,240P  0.00P  523P  19.6P     
10/21/2018 12:45 CDT5.42P  1,230P  0.00P  523P  19.6P     
10/21/2018 13:00 CDT5.42P  1,230P  0.00P  523P  19.6P  1.48P  
10/21/2018 13:15 CDT5.41P  1,220P  0.00P  523P  19.7P     
10/21/2018 13:30 CDT5.41P  1,220P  0.00P  524P  19.7P     
10/21/2018 13:45 CDT5.42P  1,230P  0.00P  523P  19.8P     
10/21/2018 14:00 CDT5.40P  1,210P  0.00P  524P  19.8P  1.52P  
10/21/2018 14:15 CDT5.40P  1,210P  0.00P  523P  19.9P     
10/21/2018 14:30 CDT5.42P  1,230P  0.00P  523P  19.9P     
10/21/2018 14:45 CDT5.42P  1,230P  0.00P  523P  19.9P     
10/21/2018 15:00 CDT5.41P  1,220P  0.00P  523P  20.0P  1.52P  
10/21/2018 15:15 CDT5.41P  1,220P  0.00P  523P  20.0P     
10/21/2018 15:30 CDT5.40P  1,210P  0.00P  523P  20.0P     
10/21/2018 15:45 CDT5.41P  1,220P  0.00P  523P        
10/21/2018 16:00 CDT5.40P  1,210P  0.00P  523P        

Explanation
  P  Provisional data subject to revision.